createdAt,value
2023-09-04T00:00:46.329Z,99722.69
2023-09-04T00:03:13.034Z,99725.38
2023-09-04T00:05:39.741Z,99731.28
2023-09-04T00:08:06.225Z,99725.13
2023-09-04T00:10:32.584Z,99725.94
2023-09-04T00:12:58.959Z,99720.63
2023-09-04T00:15:25.328Z,99723.28
2023-09-04T00:17:51.810Z,99724.13
2023-09-04T00:20:18.174Z,99723.28
2023-09-04T00:22:44.543Z,99717.16
2023-09-04T00:25:10.909Z,99716.34
2023-09-04T00:27:37.312Z,99707.78
2023-09-04T00:30:03.824Z,99712.72
2023-09-04T00:32:30.243Z,99713.75
2023-09-04T00:34:56.727Z,99723.38
2023-09-04T00:37:23.088Z,99715.63
2023-09-04T00:39:49.465Z,99707.63
2023-09-04T00:42:16.408Z,99714.81
2023-09-04T00:44:45.663Z,99719.09
2023-09-04T00:47:15.183Z,99711.34
2023-09-04T00:49:42.562Z,99712.34
2023-09-04T00:52:09.060Z,99716.03
2023-09-04T00:54:36.118Z,99714.19
2023-09-04T00:57:05.027Z,99711.53
2023-09-04T00:59:31.447Z,99704.59
2023-09-04T01:02:01.036Z,99701.34
2023-09-04T01:04:27.522Z,99709.09
2023-09-04T01:06:56.688Z,99700.31
2023-09-04T01:09:23.052Z,99712.56
2023-09-04T01:11:57.512Z,99709.34
2023-09-04T01:14:23.887Z,99712.00
2023-09-04T01:16:50.351Z,99713.63
2023-09-04T01:19:18.570Z,99709.91
2023-09-04T01:21:45.038Z,99708.28
2023-09-04T01:24:11.407Z,99706.69
2023-09-04T01:26:39.598Z,99708.50
2023-09-04T01:29:17.620Z,99704.22
2023-09-04T01:32:16.718Z,99693.00
2023-09-04T01:34:43.374Z,99690.34
2023-09-04T01:37:10.015Z,99689.53
2023-09-04T01:39:37.337Z,99691.56
2023-09-04T01:42:03.979Z,99682.78
2023-09-04T01:44:30.404Z,99687.28
2023-09-04T01:46:56.755Z,99680.94
2023-09-04T01:49:23.108Z,99686.25
2023-09-04T01:51:49.571Z,99684.19
2023-09-04T01:54:15.941Z,99678.88
2023-09-04T01:56:42.318Z,99671.91
2023-09-04T01:59:08.884Z,99682.56
2023-09-04T02:01:36.398Z,99672.53
2023-09-04T02:04:02.850Z,99669.25
2023-09-04T02:06:31.199Z,99666.16
2023-09-04T02:08:57.734Z,99668.38
2023-09-04T02:11:24.229Z,99660.97
2023-09-04T02:13:50.630Z,99660.78
2023-09-04T02:16:17.078Z,99675.91
2023-09-04T02:18:44.228Z,99672.25
2023-09-04T02:21:10.604Z,99669.78
2023-09-04T02:23:36.993Z,99659.13
2023-09-04T02:26:03.791Z,99660.47
2023-09-04T02:28:30.532Z,99654.94
2023-09-04T02:30:56.923Z,99664.69
2023-09-04T02:33:23.284Z,99662.59
2023-09-04T02:35:50.741Z,99661.59
2023-09-04T02:38:19.046Z,99672.25
2023-09-04T02:40:45.498Z,99674.09
2023-09-04T02:43:11.863Z,99659.94
2023-09-04T02:45:38.265Z,99658.31
2023-09-04T02:48:04.797Z,99657.50
2023-09-04T02:50:31.198Z,99668.97
2023-09-04T02:52:57.552Z,99658.31
2023-09-04T02:55:23.940Z,99660.19
2023-09-04T02:57:50.710Z,99656.72
2023-09-04T03:00:17.088Z,99652.19
2023-09-04T03:02:43.620Z,99645.25
2023-09-04T03:05:10.177Z,99638.22
2023-09-04T03:07:37.369Z,99634.53
2023-09-04T03:10:03.921Z,99637.41
2023-09-04T03:12:31.139Z,99637.19
2023-09-04T03:14:58.137Z,99643.13
2023-09-04T03:17:25.852Z,99642.31
2023-09-04T03:19:57.651Z,99648.44
2023-09-04T03:22:24.289Z,99642.50
2023-09-04T03:24:50.868Z,99645.16
2023-09-04T03:27:17.775Z,99638.22
2023-09-04T03:29:44.130Z,99645.41
2023-09-04T03:32:10.538Z,99648.06
2023-09-04T03:34:40.028Z,99650.94
2023-09-04T03:37:06.493Z,99646.63
2023-09-04T03:39:36.129Z,99649.53
2023-09-04T03:42:02.905Z,99652.44
2023-09-04T03:44:29.298Z,99656.13
2023-09-04T03:46:55.673Z,99657.94
2023-09-04T03:49:22.107Z,99654.47
2023-09-04T03:51:48.477Z,99653.66
2023-09-04T03:54:14.825Z,99656.56
2023-09-04T03:56:41.222Z,99664.53
2023-09-04T03:59:07.583Z,99658.63
2023-09-04T04:01:34.323Z,99655.94
2023-09-04T04:04:03.528Z,99660.47
2023-09-04T04:06:30.010Z,99654.34
2023-09-04T04:08:56.368Z,99657.22
2023-09-04T04:11:22.797Z,99655.38
2023-09-04T04:13:49.163Z,99660.94
2023-09-04T04:16:15.531Z,99667.06
2023-09-04T04:18:41.906Z,99662.53
2023-09-04T04:21:08.789Z,99657.22
2023-09-04T04:23:35.497Z,99652.94
2023-09-04T04:26:01.864Z,99652.13
2023-09-04T04:28:28.286Z,99653.97
2023-09-04T04:30:54.706Z,99656.03
2023-09-04T04:33:22.824Z,99647.25
2023-09-04T04:35:52.191Z,99646.22
2023-09-04T04:38:18.560Z,99643.78
2023-09-04T04:40:44.932Z,99647.47
2023-09-04T04:43:11.392Z,99644.22
2023-09-04T04:45:37.786Z,99640.50
2023-09-04T04:48:04.905Z,99631.72
2023-09-04T04:50:31.459Z,99636.47
2023-09-04T04:52:57.815Z,99639.94
2023-09-04T04:55:24.173Z,99636.47
2023-09-04T04:57:50.560Z,99631.00
2023-09-04T05:00:17.780Z,99637.28
2023-09-04T05:02:44.213Z,99644.69
2023-09-04T05:05:11.935Z,99639.34
2023-09-04T05:07:38.369Z,99642.00
2023-09-04T05:10:04.898Z,99641.78
2023-09-04T05:12:31.262Z,99638.91
2023-09-04T05:14:57.623Z,99645.25
2023-09-04T05:17:24.053Z,99643.41
2023-09-04T05:19:50.520Z,99649.34
2023-09-04T05:22:17.373Z,99648.06
2023-09-04T05:24:44.269Z,99641.25
2023-09-04T05:27:11.000Z,99651.47
2023-09-04T05:29:37.408Z,99649.16
2023-09-04T05:32:03.828Z,99649.75
2023-09-04T05:34:30.178Z,99654.63
2023-09-04T05:36:56.547Z,99655.81
2023-09-04T05:39:22.900Z,99650.06
2023-09-04T05:41:49.385Z,99661.06
2023-09-04T05:44:15.834Z,99655.50
2023-09-04T05:46:42.235Z,99659.34
2023-09-04T05:49:08.650Z,99664.81
2023-09-04T05:51:35.001Z,99661.28
2023-09-04T05:54:01.360Z,99663.06
2023-09-04T05:56:28.429Z,99662.88
2023-09-04T05:58:54.799Z,99664.03
2023-09-04T06:01:21.858Z,99653.75
2023-09-04T06:03:48.573Z,99655.00
2023-09-04T06:06:15.951Z,99654.75
2023-09-04T06:08:42.338Z,99645.97
2023-09-04T06:11:08.691Z,99651.88
2023-09-04T06:13:35.057Z,99642.38
2023-09-04T06:16:01.414Z,99640.09
2023-09-04T06:18:31.041Z,99644.97
2023-09-04T06:20:57.577Z,99642.69
2023-09-04T06:23:24.543Z,99647.34
2023-09-04T06:25:50.927Z,99644.44
2023-09-04T06:28:17.390Z,99645.97
2023-09-04T06:30:45.984Z,99650.38
2023-09-04T06:33:12.544Z,99650.94
2023-09-04T06:35:39.029Z,99658.06
2023-09-04T06:38:05.372Z,99664.88
2023-09-04T06:40:31.764Z,99658.31
2023-09-04T06:42:58.276Z,99658.66
2023-09-04T06:45:24.720Z,99653.09
2023-09-04T06:47:51.644Z,99651.94
2023-09-04T06:50:18.106Z,99652.53
2023-09-04T06:52:44.548Z,99651.81
2023-09-04T06:55:10.943Z,99649.53
2023-09-04T06:57:37.350Z,99654.50
2023-09-04T07:00:08.092Z,99655.66
2023-09-04T07:02:34.551Z,99651.53
2023-09-04T07:05:01.011Z,99654.72
2023-09-04T07:07:30.171Z,99653.38
2023-09-04T07:09:57.156Z,99648.88
2023-09-04T07:12:23.526Z,99655.81
2023-09-04T07:14:49.936Z,99651.44
2023-09-04T07:17:16.416Z,99657.66
2023-09-04T07:19:42.824Z,99659.22
2023-09-04T07:22:09.209Z,99662.31
2023-09-04T07:24:35.570Z,99666.09
2023-09-04T07:27:01.962Z,99662.41
2023-09-04T07:29:28.425Z,99667.72
2023-09-04T07:31:57.097Z,99667.00
2023-09-04T07:34:23.491Z,99662.38
2023-09-04T07:36:49.906Z,99669.28
2023-09-04T07:39:16.286Z,99664.75
2023-09-04T07:41:42.644Z,99658.78
2023-09-04T07:44:09.023Z,99663.44
2023-09-04T07:46:35.457Z,99671.84
2023-09-04T07:49:01.821Z,99667.34
2023-09-04T07:51:34.832Z,99672.72
2023-09-04T07:54:02.696Z,99676.81
2023-09-04T07:56:36.219Z,99663.50
2023-09-04T07:59:07.841Z,99673.91
2023-09-04T08:01:34.272Z,99678.22
2023-09-04T08:04:02.743Z,99690.34
2023-09-04T08:06:29.313Z,99683.63
2023-09-04T08:08:55.750Z,99696.16
2023-09-04T08:11:22.128Z,99691.59
2023-09-04T08:13:48.483Z,99695.06
2023-09-04T08:16:14.885Z,99690.84
2023-09-04T08:18:41.275Z,99687.91
2023-09-04T08:21:07.706Z,99692.78
2023-09-04T08:23:34.091Z,99690.25
2023-09-04T08:26:00.698Z,99685.84
2023-09-04T08:28:27.220Z,99685.53
2023-09-04T08:30:53.652Z,99689.53
2023-09-04T08:33:21.975Z,99683.47
2023-09-04T08:35:49.715Z,99692.16
2023-09-04T08:38:16.067Z,99689.13
2023-09-04T08:40:42.743Z,99680.66
2023-09-04T08:43:09.127Z,99678.97
2023-09-04T08:45:36.477Z,99674.56
2023-09-04T08:48:03.472Z,99669.03
2023-09-04T08:50:30.594Z,99676.22
2023-09-04T08:52:57.004Z,99674.81
2023-09-04T08:55:23.372Z,99669.81
2023-09-04T08:57:49.814Z,99671.66
2023-09-04T09:00:17.116Z,99672.97
2023-09-04T09:02:44.414Z,99661.13
2023-09-04T09:05:11.502Z,99665.53
2023-09-04T09:07:37.878Z,99659.63
2023-09-04T09:10:05.321Z,99657.16
2023-09-04T09:12:31.692Z,99650.19
2023-09-04T09:15:01.050Z,99653.81
2023-09-04T09:17:27.523Z,99648.72
2023-09-04T09:19:53.953Z,99648.28
2023-09-04T09:22:20.964Z,99647.47
2023-09-04T09:25:04.592Z,99642.59
2023-09-04T09:27:31.861Z,99642.16
2023-09-04T09:29:58.817Z,99648.50
2023-09-04T09:32:27.495Z,99646.63
2023-09-04T09:34:54.524Z,99655.47
2023-09-04T09:37:24.761Z,99646.31
2023-09-04T09:39:51.172Z,99640.50
2023-09-04T09:42:17.745Z,99638.88
2023-09-04T09:44:44.141Z,99643.41
2023-09-04T09:47:13.804Z,99632.06
2023-09-04T09:49:43.338Z,99638.06
2023-09-04T09:52:10.116Z,99636.44
2023-09-04T09:54:37.163Z,99635.16
2023-09-04T09:57:08.817Z,99631.47
2023-09-04T09:59:36.167Z,99632.88
2023-09-04T10:02:03.211Z,99634.16
2023-09-04T10:04:30.647Z,99630.19
2023-09-04T10:06:57.007Z,99635.28
2023-09-04T10:09:24.039Z,99627.88
2023-09-04T10:11:54.600Z,99635.88
2023-09-04T10:14:33.938Z,99634.28
2023-09-04T10:17:01.614Z,99631.94
2023-09-04T10:19:31.486Z,99626.38
2023-09-04T10:22:09.615Z,99619.44
2023-09-04T10:24:39.548Z,99621.63
2023-09-04T10:27:06.541Z,99619.44
2023-09-04T10:29:32.890Z,99617.09
2023-09-04T10:31:59.253Z,99616.66
2023-09-04T10:34:25.855Z,99612.81
2023-09-04T10:36:52.245Z,99613.38
2023-09-04T10:39:21.094Z,99612.59
2023-09-04T10:41:47.604Z,99613.16
2023-09-04T10:44:33.909Z,99614.19
2023-09-04T10:47:00.309Z,99605.94
2023-09-04T10:49:30.888Z,99613.50
2023-09-04T10:51:57.266Z,99601.56
2023-09-04T10:54:26.504Z,99606.19
2023-09-04T10:56:56.466Z,99604.13
2023-09-04T10:59:22.940Z,99600.03
2023-09-04T11:01:49.355Z,99603.13
2023-09-04T11:04:32.676Z,99610.03
2023-09-04T11:07:19.253Z,99599.00
2023-09-04T11:09:45.658Z,99578.56
2023-09-04T11:12:21.189Z,99581.13
2023-09-04T11:14:56.711Z,99572.50
2023-09-04T11:17:23.658Z,99571.84
2023-09-04T11:19:51.302Z,99573.91
2023-09-04T11:22:20.928Z,99586.44
2023-09-04T11:24:47.328Z,99586.00
2023-09-04T11:27:13.674Z,99583.44
2023-09-04T11:29:40.049Z,99583.44
2023-09-04T11:32:08.701Z,99587.13
2023-09-04T11:34:35.208Z,99580.09
2023-09-04T11:37:01.596Z,99583.78
2023-09-04T11:39:28.037Z,99575.63
2023-09-04T11:41:54.404Z,99582.06
2023-09-04T11:44:20.761Z,99577.13
2023-09-04T11:46:47.275Z,99574.34
2023-09-04T11:49:13.626Z,99574.25
2023-09-04T11:51:40.082Z,99565.38
2023-09-04T11:54:07.002Z,99561.47
2023-09-04T11:56:33.584Z,99562.25
2023-09-04T11:58:59.939Z,99567.31
2023-09-04T12:01:26.486Z,99566.59
2023-09-04T12:03:54.392Z,99553.41
2023-09-04T12:06:24.779Z,99553.50
2023-09-04T12:08:51.138Z,99552.75
2023-09-04T12:11:17.536Z,99549.16
2023-09-04T12:13:43.896Z,99547.66
2023-09-04T12:16:11.355Z,99547.50
2023-09-04T12:18:38.253Z,99544.19
2023-09-04T12:21:10.264Z,99538.31
2023-09-04T12:23:38.198Z,99534.34
2023-09-04T12:26:05.182Z,99541.28
2023-09-04T12:28:31.746Z,99538.22
2023-09-04T12:30:58.499Z,99537.03
2023-09-04T12:33:27.661Z,99530.66
2023-09-04T12:36:00.110Z,99531.69
2023-09-04T12:38:26.505Z,99528.22
2023-09-04T12:40:52.903Z,99531.47
2023-09-04T12:43:19.262Z,99525.34
2023-09-04T12:45:45.806Z,99525.44
2023-09-04T12:48:15.551Z,99527.56
2023-09-04T12:50:41.944Z,99524.88
2023-09-04T12:53:08.299Z,99527.09
2023-09-04T12:55:34.663Z,99530.06
2023-09-04T12:58:01.314Z,99527.63
2023-09-04T13:00:28.594Z,99524.63
2023-09-04T13:02:55.406Z,99524.50
2023-09-04T13:05:21.938Z,99520.56
2023-09-04T13:07:48.370Z,99517.88
2023-09-04T13:10:15.003Z,99516.97
2023-09-04T13:12:41.358Z,99514.94
2023-09-04T13:15:08.135Z,99507.81
2023-09-04T13:17:34.596Z,99506.06
2023-09-04T13:20:01.282Z,99505.38
2023-09-04T13:22:27.631Z,99502.81
2023-09-04T13:24:54.014Z,99491.31
2023-09-04T13:27:21.848Z,99493.13
2023-09-04T13:29:48.258Z,99494.31
2023-09-04T13:32:14.612Z,99501.66
2023-09-04T13:34:42.319Z,99490.69
2023-09-04T13:37:08.705Z,99488.84
2023-09-04T13:39:35.150Z,99484.41
2023-09-04T13:42:01.576Z,99486.00
2023-09-04T13:44:28.017Z,99488.53
2023-09-04T13:46:54.515Z,99478.00
2023-09-04T13:49:21.181Z,99476.50
2023-09-04T13:51:47.576Z,99477.19
2023-09-04T13:54:13.948Z,99484.03
2023-09-04T13:56:41.385Z,99475.56
2023-09-04T13:59:07.903Z,99472.09
2023-09-04T14:01:34.382Z,99471.25
2023-09-04T14:04:00.981Z,99463.97
2023-09-04T14:06:27.386Z,99459.06
2023-09-04T14:08:53.785Z,99460.47
2023-09-04T14:11:20.165Z,99456.66
2023-09-04T14:13:46.524Z,99453.28
2023-09-04T14:16:13.198Z,99453.66
2023-09-04T14:18:39.617Z,99444.13
2023-09-04T14:21:06.681Z,99439.56
2023-09-04T14:23:33.109Z,99443.38
2023-09-04T14:25:59.536Z,99442.38
2023-09-04T14:28:25.894Z,99438.31
2023-09-04T14:30:52.781Z,99441.09
2023-09-04T14:33:19.175Z,99447.97
2023-09-04T14:35:45.569Z,99444.41
2023-09-04T14:38:12.025Z,99445.47
2023-09-04T14:40:45.439Z,99451.19
2023-09-04T14:43:14.497Z,99440.31
2023-09-04T14:45:41.205Z,99440.88
2023-09-04T14:48:07.730Z,99432.28
2023-09-04T14:50:34.224Z,99430.13
2023-09-04T14:53:00.668Z,99435.38
2023-09-04T14:55:27.014Z,99432.63
2023-09-04T14:57:53.725Z,99429.97
2023-09-04T15:00:20.414Z,99434.72
2023-09-04T15:02:47.009Z,99424.13
2023-09-04T15:05:13.421Z,99423.94
2023-09-04T15:07:39.818Z,99426.16
2023-09-04T15:10:06.271Z,99418.25
2023-09-04T15:12:32.649Z,99411.84
2023-09-04T15:14:59.008Z,99413.44
2023-09-04T15:17:25.421Z,99405.06
2023-09-04T15:19:52.747Z,99403.81
2023-09-04T15:22:19.157Z,99406.03
2023-09-04T15:24:45.782Z,99391.84
2023-09-04T15:27:12.230Z,99400.38
2023-09-04T15:29:38.590Z,99395.75
2023-09-04T15:32:05.321Z,99392.63
2023-09-04T15:34:31.729Z,99395.28
2023-09-04T15:36:58.131Z,99390.19
2023-09-04T15:39:24.500Z,99377.88
2023-09-04T15:41:50.941Z,99373.88
2023-09-04T15:44:17.429Z,99372.16
2023-09-04T15:46:46.522Z,99379.91
2023-09-04T15:49:13.041Z,99376.69
2023-09-04T15:51:39.451Z,99372.38
2023-09-04T15:54:05.870Z,99374.25
2023-09-04T15:56:32.252Z,99364.63
2023-09-04T15:58:58.640Z,99358.75
2023-09-04T16:01:25.001Z,99357.69
2023-09-04T16:03:51.420Z,99357.69
2023-09-04T16:06:17.817Z,99359.75
2023-09-04T16:08:44.176Z,99351.75
2023-09-04T16:11:12.491Z,99364.06
2023-09-04T16:13:38.853Z,99358.75
2023-09-04T16:16:05.311Z,99358.16
2023-09-04T16:18:31.857Z,99356.53
2023-09-04T16:20:58.781Z,99355.72
2023-09-04T16:23:25.350Z,99356.78
2023-09-04T16:25:54.825Z,99350.63
2023-09-04T16:28:23.828Z,99349.25
2023-09-04T16:30:53.677Z,99347.66
2023-09-04T16:33:21.648Z,99342.53
2023-09-04T16:35:48.191Z,99346.25
2023-09-04T16:38:14.547Z,99350.78
2023-09-04T16:40:41.754Z,99345.44
2023-09-04T16:43:08.453Z,99349.41
2023-09-04T16:45:36.166Z,99342.22
2023-09-04T16:48:03.121Z,99348.59
2023-09-04T16:50:29.650Z,99342.44
2023-09-04T16:52:56.275Z,99345.38
2023-09-04T16:55:22.634Z,99343.75
2023-09-04T16:57:49.000Z,99334.03
2023-09-04T17:00:15.528Z,99336.56
2023-09-04T17:02:41.959Z,99336.56
2023-09-04T17:05:08.429Z,99331.47
2023-09-04T17:07:34.894Z,99334.34
2023-09-04T17:10:01.306Z,99333.31
2023-09-04T17:12:29.822Z,99329.03
2023-09-04T17:14:56.189Z,99332.50
2023-09-04T17:17:22.575Z,99334.59
2023-09-04T17:19:48.967Z,99334.34
2023-09-04T17:22:15.382Z,99334.84
2023-09-04T17:24:41.756Z,99333.22
2023-09-04T17:27:11.021Z,99327.41
2023-09-04T17:29:38.203Z,99320.69
2023-09-04T17:32:05.594Z,99316.66
2023-09-04T17:34:32.044Z,99319.56
2023-09-04T17:36:58.478Z,99323.28
2023-09-04T17:39:28.800Z,99321.41
2023-09-04T17:41:55.302Z,99323.06
2023-09-04T17:44:22.266Z,99326.75
2023-09-04T17:46:48.626Z,99330.81
2023-09-04T17:49:15.238Z,99328.03
2023-09-04T17:51:41.622Z,99336.84
2023-09-04T17:54:07.979Z,99334.44
2023-09-04T17:56:34.370Z,99334.44
2023-09-04T17:59:00.732Z,99331.19
2023-09-04T18:01:29.678Z,99336.50
2023-09-04T18:03:56.477Z,99333.84
2023-09-04T18:06:23.044Z,99326.91
2023-09-04T18:08:49.505Z,99320.75
2023-09-04T18:11:15.966Z,99326.91
2023-09-04T18:13:42.353Z,99327.94
2023-09-04T18:16:08.792Z,99325.53
2023-09-04T18:18:41.041Z,99326.34
2023-09-04T18:21:08.029Z,99322.03
2023-09-04T18:23:34.936Z,99330.03
2023-09-04T18:26:01.419Z,99330.28
2023-09-04T18:28:28.028Z,99334.81
2023-09-04T18:30:54.811Z,99332.94
2023-09-04T18:33:21.248Z,99341.19
2023-09-04T18:35:47.824Z,99338.53
2023-09-04T18:38:14.514Z,99337.00
2023-09-04T18:40:40.869Z,99335.06
2023-09-04T18:43:07.231Z,99338.34
2023-09-04T18:45:33.610Z,99331.69
2023-09-04T18:48:00.017Z,99333.09
2023-09-04T18:50:26.462Z,99331.69
2023-09-04T18:52:52.846Z,99341.31
2023-09-04T18:55:19.412Z,99342.59
2023-09-04T18:57:45.764Z,99333.81
2023-09-04T19:00:13.224Z,99338.34
2023-09-04T19:02:39.731Z,99341.00
2023-09-04T19:05:07.869Z,99338.09
2023-09-04T19:07:34.324Z,99334.03
2023-09-04T19:10:00.691Z,99339.59
2023-09-04T19:12:27.102Z,99333.22
2023-09-04T19:14:53.506Z,99336.13
2023-09-04T19:17:19.886Z,99341.72
2023-09-04T19:19:46.372Z,99336.56
2023-09-04T19:22:12.749Z,99344.13
2023-09-04T19:24:40.468Z,99327.19
2023-09-04T19:27:06.834Z,99332.03
2023-09-04T19:29:33.311Z,99331.84
2023-09-04T19:32:00.081Z,99329.19
2023-09-04T19:34:26.689Z,99321.19
2023-09-04T19:36:53.084Z,99330.25
2023-09-04T19:39:19.441Z,99331.06
2023-09-04T19:41:45.793Z,99325.09
2023-09-04T19:44:12.204Z,99328.56
2023-09-04T19:46:38.546Z,99327.75
2023-09-04T19:49:04.894Z,99328.38
2023-09-04T19:51:31.272Z,99322.81
2023-09-04T19:53:57.668Z,99334.53
2023-09-04T19:56:24.392Z,99333.91
2023-09-04T19:58:50.736Z,99324.28
2023-09-04T20:01:17.180Z,99334.69
2023-09-04T20:03:43.745Z,99337.63
2023-09-04T20:06:13.458Z,99328.56
2023-09-04T20:08:41.332Z,99330.69
2023-09-04T20:11:07.681Z,99340.03
2023-09-04T20:13:34.037Z,99323.50
2023-09-04T20:16:00.706Z,99321.88
2023-09-04T20:18:27.353Z,99313.06
2023-09-04T20:20:55.665Z,99311.22
2023-09-04T20:23:22.041Z,99319.44
2023-09-04T20:25:48.452Z,99306.34
2023-09-04T20:28:14.807Z,99306.09
2023-09-04T20:30:48.332Z,99313.06
2023-09-04T20:33:14.709Z,99324.75
2023-09-04T20:35:41.061Z,99311.44
2023-09-04T20:38:07.435Z,99312.28
2023-09-04T20:40:33.863Z,99304.50
2023-09-04T20:43:00.238Z,99307.16
2023-09-04T20:45:26.842Z,99299.16
2023-09-04T20:47:53.615Z,99302.63
2023-09-04T20:50:20.083Z,99305.28
2023-09-04T20:52:47.698Z,99304.75
2023-09-04T20:55:14.166Z,99298.34
2023-09-04T20:57:40.526Z,99313.53
2023-09-04T21:00:07.454Z,99302.06
2023-09-04T21:02:33.955Z,99306.59
2023-09-04T21:05:00.440Z,99301.28
2023-09-04T21:07:26.768Z,99293.28
2023-09-04T21:09:53.111Z,99289.00
2023-09-04T21:12:39.406Z,99286.34
2023-09-04T21:15:24.466Z,99282.03
2023-09-04T21:18:09.363Z,99275.09
2023-09-04T21:20:54.181Z,99289.56
2023-09-04T21:23:39.068Z,99282.84
2023-09-04T21:26:24.178Z,99283.66
2023-09-04T21:29:09.103Z,99279.38
2023-09-04T21:31:54.100Z,99278.34
2023-09-04T21:34:39.022Z,99276.50
2023-09-04T21:37:23.966Z,99271.38
2023-09-04T21:40:08.853Z,99276.69
2023-09-04T21:42:53.876Z,99274.84
2023-09-04T21:45:39.034Z,99273.00
2023-09-04T21:48:24.176Z,99273.22
2023-09-04T21:51:09.133Z,99267.09
2023-09-04T21:53:54.086Z,99266.03
2023-09-04T21:56:38.937Z,99260.97
2023-09-04T21:59:23.857Z,99266.28
2023-09-04T22:02:08.672Z,99264.44
2023-09-04T22:04:53.515Z,99261.78
2023-09-04T22:07:38.243Z,99258.31
2023-09-04T22:10:23.310Z,99262.00
2023-09-04T22:13:08.227Z,99252.97
2023-09-04T22:15:53.137Z,99249.50
2023-09-04T22:18:38.939Z,99246.84
2023-09-04T22:21:24.031Z,99247.88
2023-09-04T22:24:09.380Z,99239.09
2023-09-04T22:26:54.062Z,99244.41
2023-09-04T22:29:39.128Z,99240.91
2023-09-04T22:32:23.863Z,99231.09
2023-09-04T22:35:08.721Z,99229.72
2023-09-04T22:37:53.585Z,99225.44
2023-09-04T22:40:38.913Z,99233.19
2023-09-04T22:43:24.214Z,99231.56
2023-09-04T22:46:09.387Z,99230.75
2023-09-04T22:48:54.160Z,99227.50
2023-09-04T22:51:39.011Z,99227.28
2023-09-04T22:54:24.306Z,99221.16
2023-09-04T22:57:09.323Z,99216.84
2023-09-04T22:59:54.419Z,99218.72
2023-09-04T23:02:39.372Z,99209.13
2023-09-04T23:05:24.840Z,99207.25
2023-09-04T23:08:10.252Z,99205.41
2023-09-04T23:10:55.289Z,99196.84
2023-09-04T23:13:40.064Z,99193.72
2023-09-04T23:16:24.901Z,99187.56
2023-09-04T23:19:09.877Z,99182.13
2023-09-04T23:21:39.774Z,99186.75
2023-09-04T23:24:08.767Z,99188.59
2023-09-04T23:26:51.493Z,99195.78
2023-09-04T23:29:20.476Z,99184.09
2023-09-04T23:31:48.932Z,99184.34
2023-09-04T23:34:15.709Z,99190.72
2023-09-04T23:37:00.780Z,99185.38
2023-09-04T23:39:33.036Z,99174.47
2023-09-04T23:42:18.927Z,99181.66
2023-09-04T23:45:03.878Z,99177.16
2023-09-04T23:47:30.649Z,99179.00
2023-09-04T23:49:59.579Z,99179.81
2023-09-04T23:52:28.611Z,99181.41
2023-09-04T23:54:56.151Z,99174.72
2023-09-04T23:57:22.496Z,99166.97
2023-09-04T23:59:49.088Z,99167.22
